Time;durP1;ratioP1;P1;durP2;ratioP2;P2;SDS_P1;SDS_P2;PMS_P1;PMS_P2;Temp;Humidity;BMP_temperature;BMP_pressure;BME280_temperature;BME280_humidity;BME280_pressure;Samples;Min_cycle;Max_cycle;Signal;HPM_P1;HPM_P2
2022/12/06 00:00:44;;;;;;;31.58;11.20;;;;;;;;;;5006753;28;20097;-69
2022/12/06 00:03:10;;;;;;;37.78;11.93;;;;;;;;;;5006695;28;20030;-70
2022/12/06 00:05:36;;;;;;;35.97;11.10;;;;;;;;;;4997401;28;20060;-70
2022/12/06 00:08:03;;;;;;;35.78;11.15;;;;;;;;;;5009375;28;20079;-69
2022/12/06 00:10:29;;;;;;;29.65;10.60;;;;;;;;;;4996532;28;20044;-70
2022/12/06 00:12:55;;;;;;;33.10;11.32;;;;;;;;;;5003004;28;20037;-70
2022/12/06 00:15:21;;;;;;;23.67;10.95;;;;;;;;;;5002228;28;20036;-70
2022/12/06 00:17:47;;;;;;;31.85;11.75;;;;;;;;;;5005199;28;20076;-70
2022/12/06 00:20:14;;;;;;;30.08;10.77;;;;;;;;;;5006661;28;20083;-70
2022/12/06 00:22:44;;;;;;;36.55;11.82;;;;;;;;;;4996749;28;20037;-70
2022/12/06 00:25:10;;;;;;;27.63;9.63;;;;;;;;;;5007072;28;20037;-70
2022/12/06 00:27:36;;;;;;;29.45;11.15;;;;;;;;;;5004872;28;20407;-70
2022/12/06 00:30:03;;;;;;;35.55;12.18;;;;;;;;;;5001412;28;20030;-70
2022/12/06 00:32:29;;;;;;;37.38;11.10;;;;;;;;;;5002817;28;20037;-70
2022/12/06 00:34:55;;;;;;;30.45;10.23;;;;;;;;;;4989550;28;20026;-70
2022/12/06 00:37:22;;;;;;;34.97;10.70;;;;;;;;;;5005093;28;20240;-70
2022/12/06 00:39:48;;;;;;;38.08;11.20;;;;;;;;;;5005382;28;20030;-70
2022/12/06 00:42:14;;;;;;;30.02;10.27;;;;;;;;;;5005221;28;20042;-70
2022/12/06 00:44:40;;;;;;;29.13;11.07;;;;;;;;;;5008398;28;20029;-70
2022/12/06 00:47:07;;;;;;;33.00;11.30;;;;;;;;;;5004103;28;20030;-70
2022/12/06 00:49:33;;;;;;;27.48;11.32;;;;;;;;;;5004910;28;20065;-70
2022/12/06 00:51:59;;;;;;;29.17;11.02;;;;;;;;;;5007745;28;20038;-70
2022/12/06 00:54:25;;;;;;;27.95;10.27;;;;;;;;;;5004814;28;20046;-70
2022/12/06 00:56:52;;;;;;;26.30;10.18;;;;;;;;;;5007819;28;20222;-70
2022/12/06 00:59:18;;;;;;;26.42;10.85;;;;;;;;;;5006953;28;20053;-69
2022/12/06 01:01:44;;;;;;;26.08;10.13;;;;;;;;;;5001526;28;20037;-69
2022/12/06 01:04:10;;;;;;;25.90;10.07;;;;;;;;;;5008063;28;20447;-70
2022/12/06 01:06:37;;;;;;;32.75;10.70;;;;;;;;;;5008469;28;20045;-69
2022/12/06 01:09:05;;;;;;;39.72;10.45;;;;;;;;;;4997445;28;20473;-69
2022/12/06 01:11:31;;;;;;;29.90;10.63;;;;;;;;;;5008701;28;20121;-70
2022/12/06 01:13:57;;;;;;;41.25;11.27;;;;;;;;;;5003209;28;20022;-70
2022/12/06 01:16:25;;;;;;;34.00;10.52;;;;;;;;;;5002609;28;20117;-70
2022/12/06 01:18:52;;;;;;;27.08;10.70;;;;;;;;;;5007437;28;20053;-70
2022/12/06 01:21:19;;;;;;;27.13;10.52;;;;;;;;;;5005929;28;20032;-70
2022/12/06 01:23:45;;;;;;;21.13;9.90;;;;;;;;;;5008657;28;20026;-70
2022/12/06 01:26:15;;;;;;;28.25;11.68;;;;;;;;;;5008294;28;20026;-69
2022/12/06 01:28:41;;;;;;;20.33;9.57;;;;;;;;;;5004562;28;20030;-70
2022/12/06 01:31:07;;;;;;;29.52;9.77;;;;;;;;;;4993718;28;20029;-69
2022/12/06 01:33:33;;;;;;;23.17;9.32;;;;;;;;;;5006966;28;20057;-69
2022/12/06 01:36:00;;;;;;;26.42;9.07;;;;;;;;;;5006280;28;20029;-69
2022/12/06 01:38:26;;;;;;;32.55;9.23;;;;;;;;;;5004321;28;20030;-69
2022/12/06 01:40:52;;;;;;;24.33;8.05;;;;;;;;;;5006443;28;20064;-69
2022/12/06 01:43:41;;;;;;;24.33;9.05;;;;;;;;;;5004115;28;20029;-69
2022/12/06 01:46:16;;;;;;;25.38;9.40;;;;;;;;;;5002348;28;20026;-70
2022/12/06 01:48:42;;;;;;;27.42;9.65;;;;;;;;;;5006082;28;20057;-69
2022/12/06 01:51:09;;;;;;;25.70;8.90;;;;;;;;;;5008237;28;20030;-70
2022/12/06 01:53:36;;;;;;;18.83;8.48;;;;;;;;;;5013314;28;20029;-69
2022/12/06 01:56:03;;;;;;;29.05;9.32;;;;;;;;;;5014428;28;20100;-70
2022/12/06 01:58:31;;;;;;;30.85;8.40;;;;;;;;;;5011997;28;20076;-69
2022/12/06 02:00:57;;;;;;;29.70;10.65;;;;;;;;;;5013680;28;20113;-70
2022/12/06 02:03:27;;;;;;;22.05;8.05;;;;;;;;;;5011895;28;20117;-69
2022/12/06 02:05:53;;;;;;;32.03;9.27;;;;;;;;;;4998317;28;20018;-70
2022/12/06 02:08:20;;;;;;;25.88;8.98;;;;;;;;;;5009895;28;20144;-70
2022/12/06 02:10:46;;;;;;;21.92;8.55;;;;;;;;;;5014561;28;20487;-70
2022/12/06 02:13:12;;;;;;;22.27;8.05;;;;;;;;;;5010729;28;20573;-70
2022/12/06 02:15:49;;;;;;;25.17;8.70;;;;;;;;;;5007208;28;20049;-70
2022/12/06 02:18:22;;;;;;;24.73;8.20;;;;;;;;;;5010110;28;20084;-69
2022/12/06 02:20:53;;;;;;;24.42;8.18;;;;;;;;;;5011851;28;20515;-70
2022/12/06 02:23:22;;;;;;;31.33;8.63;;;;;;;;;;5010489;28;20026;-70
2022/12/06 02:25:48;;;;;;;27.92;7.40;;;;;;;;;;5022746;28;20124;-70
2022/12/06 02:28:21;;;;;;;23.98;8.90;;;;;;;;;;5013239;28;20025;-69
2022/12/06 02:30:53;;;;;;;17.92;6.57;;;;;;;;;;5013855;28;20042;-69
2022/12/06 02:33:45;;;;;;;21.30;8.25;;;;;;;;;;5011162;28;20030;-70
2022/12/06 02:36:19;;;;;;;20.73;7.57;;;;;;;;;;5009874;28;20096;-69
2022/12/06 02:38:48;;;;;;;19.08;6.63;;;;;;;;;;5011208;28;20034;-69
2022/12/06 02:41:18;;;;;;;15.07;6.38;;;;;;;;;;5011247;28;20034;-70
2022/12/06 02:43:47;;;;;;;25.50;7.00;;;;;;;;;;5013684;28;20391;-70
2022/12/06 02:46:16;;;;;;;22.00;6.82;;;;;;;;;;5002692;28;20025;-70
2022/12/06 02:48:45;;;;;;;27.95;8.48;;;;;;;;;;5014201;28;20038;-69
2022/12/06 02:51:13;;;;;;;17.73;6.40;;;;;;;;;;5013530;28;20030;-69
2022/12/06 02:53:42;;;;;;;20.23;6.00;;;;;;;;;;5010966;28;20124;-70
2022/12/06 02:56:08;;;;;;;15.98;6.47;;;;;;;;;;5013458;28;20034;-69
2022/12/06 02:58:35;;;;;;;18.65;5.68;;;;;;;;;;5013271;28;20073;-69
2022/12/06 03:01:11;;;;;;;21.90;6.78;;;;;;;;;;5014374;28;20054;-69
2022/12/06 03:03:40;;;;;;;18.55;6.22;;;;;;;;;;5009301;28;20105;-70
2022/12/06 03:06:13;;;;;;;22.95;6.55;;;;;;;;;;5010761;28;20076;-70
2022/12/06 03:08:39;;;;;;;14.00;5.70;;;;;;;;;;5008638;28;20034;-70
2022/12/06 03:11:05;;;;;;;13.38;6.15;;;;;;;;;;5010987;28;20363;-69
2022/12/06 03:13:44;;;;;;;14.70;5.85;;;;;;;;;;5010497;28;20030;-70
2022/12/06 03:16:19;;;;;;;15.20;6.43;;;;;;;;;;5006969;28;20033;-70
2022/12/06 03:18:57;;;;;;;15.07;6.45;;;;;;;;;;5009893;28;20411;-70
2022/12/06 03:21:47;;;;;;;19.77;7.07;;;;;;;;;;5006315;28;20026;-70
2022/12/06 03:24:14;;;;;;;14.50;6.25;;;;;;;;;;4998657;28;20044;-70
2022/12/06 03:26:41;;;;;;;15.45;6.05;;;;;;;;;;5009777;28;20045;-70
2022/12/06 03:29:08;;;;;;;27.55;6.95;;;;;;;;;;5007306;28;20040;-70
2022/12/06 03:31:36;;;;;;;23.38;6.20;;;;;;;;;;5009360;28;20030;-70
2022/12/06 03:34:06;;;;;;;12.95;5.78;;;;;;;;;;5007534;28;20113;-70
2022/12/06 03:36:32;;;;;;;16.13;6.65;;;;;;;;;;5009978;28;20041;-69
2022/12/06 03:39:00;;;;;;;18.10;6.18;;;;;;;;;;5009887;28;20033;-69
2022/12/06 03:41:29;;;;;;;15.88;5.65;;;;;;;;;;5009817;28;20029;-70
2022/12/06 03:43:55;;;;;;;21.90;6.25;;;;;;;;;;4996055;28;20064;-70
2022/12/06 03:46:24;;;;;;;19.73;6.43;;;;;;;;;;5009333;28;20838;-70
2022/12/06 03:48:54;;;;;;;16.05;5.35;;;;;;;;;;5007120;28;20026;-70
2022/12/06 03:51:21;;;;;;;19.15;6.28;;;;;;;;;;5005434;28;20064;-70
2022/12/06 03:53:52;;;;;;;17.67;5.95;;;;;;;;;;5008926;28;20505;-70
2022/12/06 03:56:19;;;;;;;18.52;6.88;;;;;;;;;;5007689;28;20506;-69
2022/12/06 03:58:45;;;;;;;26.90;6.60;;;;;;;;;;5025349;28;20455;-69
2022/12/06 04:01:11;;;;;;;18.55;5.95;;;;;;;;;;5008548;28;20042;-69
2022/12/06 04:03:37;;;;;;;25.15;6.78;;;;;;;;;;5009040;28;20172;-70
2022/12/06 04:06:04;;;;;;;11.60;4.60;;;;;;;;;;5009258;28;20029;-69
2022/12/06 04:08:31;;;;;;;17.45;6.05;;;;;;;;;;5009652;28;20498;-70
2022/12/06 04:10:57;;;;;;;30.10;5.88;;;;;;;;;;5009215;28;20050;-70
2022/12/06 04:13:24;;;;;;;14.75;5.32;;;;;;;;;;5008574;28;20029;-70
2022/12/06 04:15:54;;;;;;;15.32;5.47;;;;;;;;;;5005436;28;20087;-69
2022/12/06 04:18:20;;;;;;;14.20;4.85;;;;;;;;;;5003871;28;20130;-69
2022/12/06 04:23:38;;;;;;;20.73;5.50;;;;;;;;;;5004607;28;20034;-70
2022/12/06 04:26:05;;;;;;;13.98;5.78;;;;;;;;;;5007840;28;20117;-69
2022/12/06 04:39:32;;;;;;;13.75;4.93;;;;;;;;;;4999621;28;20373;-70
2022/12/06 04:44:43;;;;;;;22.95;5.97;;;;;;;;;;5005465;28;20045;-70
2022/12/06 04:47:09;;;;;;;13.18;5.68;;;;;;;;;;4998205;28;20088;-69
2022/12/06 04:49:36;;;;;;;15.52;5.78;;;;;;;;;;5006297;28;20026;-70
2022/12/06 04:52:02;;;;;;;16.10;5.53;;;;;;;;;;5008479;28;20038;-69
2022/12/06 04:54:29;;;;;;;19.63;5.38;;;;;;;;;;5006032;28;20156;-69
2022/12/06 04:56:56;;;;;;;13.60;5.15;;;;;;;;;;5005609;28;20044;-70
2022/12/06 04:59:22;;;;;;;19.75;6.07;;;;;;;;;;5001450;28;20087;-70
2022/12/06 05:01:48;;;;;;;15.50;5.53;;;;;;;;;;5004848;28;20131;-70
2022/12/06 05:04:15;;;;;;;16.63;6.45;;;;;;;;;;5008154;28;20045;-69
2022/12/06 05:06:41;;;;;;;13.80;5.70;;;;;;;;;;4992916;28;20037;-69
2022/12/06 05:09:07;;;;;;;13.02;5.60;;;;;;;;;;5000523;28;20022;-69
2022/12/06 05:11:33;;;;;;;17.65;5.50;;;;;;;;;;5007836;28;20053;-69
2022/12/06 05:14:00;;;;;;;19.40;5.80;;;;;;;;;;5007450;28;20034;-70
2022/12/06 05:16:26;;;;;;;25.77;6.38;;;;;;;;;;5006680;28;20041;-69
2022/12/06 05:18:52;;;;;;;18.58;5.68;;;;;;;;;;5008053;28;20392;-70
2022/12/06 05:21:19;;;;;;;17.10;6.00;;;;;;;;;;5002664;28;20029;-69
2022/12/06 05:23:46;;;;;;;14.57;5.82;;;;;;;;;;5008775;28;20184;-69
2022/12/06 05:26:16;;;;;;;17.15;6.07;;;;;;;;;;5004447;28;20095;-69
2022/12/06 05:28:43;;;;;;;14.70;5.60;;;;;;;;;;5004226;28;20117;-69
2022/12/06 05:31:09;;;;;;;14.00;5.95;;;;;;;;;;5007325;28;20045;-70
2022/12/06 05:33:35;;;;;;;11.68;5.45;;;;;;;;;;5007988;28;20594;-70
2022/12/06 05:36:09;;;;;;;15.18;5.32;;;;;;;;;;5012783;28;20434;-70
2022/12/06 05:38:35;;;;;;;14.90;5.75;;;;;;;;;;5008970;28;20029;-69
2022/12/06 05:41:03;;;;;;;11.63;5.57;;;;;;;;;;5007717;28;20446;-69
2022/12/06 05:43:29;;;;;;;16.00;6.57;;;;;;;;;;5003038;28;20297;-69
2022/12/06 05:45:55;;;;;;;17.52;5.70;;;;;;;;;;5006941;28;20100;-70
2022/12/06 05:48:22;;;;;;;20.65;6.40;;;;;;;;;;5003158;28;20647;-69
2022/12/06 05:50:48;;;;;;;17.95;6.93;;;;;;;;;;4994214;28;20058;-70
2022/12/06 05:53:14;;;;;;;13.75;5.82;;;;;;;;;;5006860;28;20112;-70
2022/12/06 05:55:41;;;;;;;18.00;6.95;;;;;;;;;;5004515;28;20525;-69
2022/12/06 05:58:07;;;;;;;18.50;6.68;;;;;;;;;;5004996;28;20048;-71
2022/12/06 06:00:33;;;;;;;14.35;6.22;;;;;;;;;;4987592;28;20113;-71
2022/12/06 06:02:59;;;;;;;16.52;6.38;;;;;;;;;;5002378;28;20072;-70
2022/12/06 06:05:25;;;;;;;19.30;6.35;;;;;;;;;;5005626;28;20113;-69
2022/12/06 06:07:51;;;;;;;14.93;6.43;;;;;;;;;;5010621;28;20034;-70
2022/12/06 06:10:18;;;;;;;18.35;6.10;;;;;;;;;;5005340;28;20053;-70
2022/12/06 06:12:44;;;;;;;15.95;6.68;;;;;;;;;;5003621;28;20392;-70
2022/12/06 06:15:12;;;;;;;28.83;6.32;;;;;;;;;;5005050;28;20029;-70
2022/12/06 06:17:38;;;;;;;17.95;6.57;;;;;;;;;;5003568;28;20041;-69
2022/12/06 06:20:05;;;;;;;16.60;5.90;;;;;;;;;;5004479;28;20132;-70
2022/12/06 06:22:32;;;;;;;21.55;7.65;;;;;;;;;;5006281;28;20022;-70
2022/12/06 06:24:59;;;;;;;20.45;7.00;;;;;;;;;;5005687;28;20136;-70
2022/12/06 06:27:25;;;;;;;17.83;7.35;;;;;;;;;;5001803;28;20435;-70
2022/12/06 06:29:51;;;;;;;23.30;6.43;;;;;;;;;;5005641;28;20119;-70
2022/12/06 06:32:17;;;;;;;14.80;6.05;;;;;;;;;;5001133;28;20052;-70
2022/12/06 06:34:44;;;;;;;15.70;5.57;;;;;;;;;;4995978;28;20041;-70
2022/12/06 06:37:10;;;;;;;24.30;6.70;;;;;;;;;;5002783;28;20104;-70
2022/12/06 06:39:36;;;;;;;12.52;5.32;;;;;;;;;;5008705;28;20138;-70
2022/12/06 06:42:02;;;;;;;15.05;5.47;;;;;;;;;;5006238;28;20033;-69
2022/12/06 06:44:29;;;;;;;15.73;5.63;;;;;;;;;;5009339;28;20112;-70
2022/12/06 06:46:55;;;;;;;13.38;6.28;;;;;;;;;;5008412;28;20026;-70
2022/12/06 06:49:21;;;;;;;15.48;6.10;;;;;;;;;;4993225;28;20034;-70
2022/12/06 06:51:47;;;;;;;18.45;6.95;;;;;;;;;;5012657;28;20084;-69
2022/12/06 06:54:14;;;;;;;14.38;6.53;;;;;;;;;;5005919;28;20037;-69
2022/12/06 06:56:40;;;;;;;18.30;6.38;;;;;;;;;;5005958;28;20034;-70
2022/12/06 06:59:06;;;;;;;25.13;7.00;;;;;;;;;;5005953;28;20121;-70
2022/12/06 07:01:32;;;;;;;14.95;6.18;;;;;;;;;;5006711;28;20030;-70
2022/12/06 07:03:59;;;;;;;14.77;5.55;;;;;;;;;;5005994;28;20030;-70
2022/12/06 07:06:25;;;;;;;18.05;5.55;;;;;;;;;;5008655;28;20069;-69
2022/12/06 07:08:51;;;;;;;13.70;5.47;;;;;;;;;;5008169;28;20037;-70
2022/12/06 07:11:17;;;;;;;14.52;6.20;;;;;;;;;;5022585;28;20036;-69
2022/12/06 07:13:44;;;;;;;15.55;6.20;;;;;;;;;;5006854;28;20034;-70
2022/12/06 07:16:15;;;;;;;21.55;7.38;;;;;;;;;;4991508;28;20022;-70
2022/12/06 07:18:42;;;;;;;25.55;6.57;;;;;;;;;;5007385;28;20076;-70
2022/12/06 07:21:11;;;;;;;25.40;6.50;;;;;;;;;;5006266;28;20522;-69
2022/12/06 07:23:37;;;;;;;21.52;7.80;;;;;;;;;;5009980;28;20048;-69
2022/12/06 07:26:05;;;;;;;17.50;7.43;;;;;;;;;;5005323;28;20084;-69
2022/12/06 07:28:32;;;;;;;30.38;8.98;;;;;;;;;;5010103;28;20034;-69
2022/12/06 07:30:58;;;;;;;25.23;8.68;;;;;;;;;;5009002;28;20104;-69
2022/12/06 07:33:24;;;;;;;26.10;9.68;;;;;;;;;;5009322;28;20125;-70
2022/12/06 07:35:52;;;;;;;21.05;8.75;;;;;;;;;;4992979;28;20160;-69
2022/12/06 07:38:18;;;;;;;18.73;7.65;;;;;;;;;;5007429;28;20054;-70
2022/12/06 07:40:45;;;;;;;21.60;8.45;;;;;;;;;;5009817;28;20137;-69
2022/12/06 07:45:55;;;;;;;24.35;8.40;;;;;;;;;;5007760;28;20115;-69
2022/12/06 07:48:21;;;;;;;28.58;10.23;;;;;;;;;;5007794;28;20472;-69
2022/12/06 07:50:47;;;;;;;23.05;8.68;;;;;;;;;;5004621;28;20086;-69
2022/12/06 07:53:14;;;;;;;29.35;10.00;;;;;;;;;;5004504;28;20117;-69
2022/12/06 07:55:40;;;;;;;22.98;8.55;;;;;;;;;;5009163;28;20046;-69
2022/12/06 07:58:07;;;;;;;30.10;8.27;;;;;;;;;;4995211;28;20042;-70
2022/12/06 08:00:33;;;;;;;21.98;8.30;;;;;;;;;;4995702;28;20037;-69
2022/12/06 08:02:59;;;;;;;21.63;9.10;;;;;;;;;;5008056;28;20061;-69
2022/12/06 08:05:25;;;;;;;26.88;9.32;;;;;;;;;;5007992;28;20127;-69
2022/12/06 08:07:52;;;;;;;27.08;10.05;;;;;;;;;;5004624;28;20175;-69
2022/12/06 08:10:18;;;;;;;25.00;9.80;;;;;;;;;;5008502;28;20502;-69
2022/12/06 08:12:44;;;;;;;28.70;10.38;;;;;;;;;;5005837;28;20490;-69
2022/12/06 08:15:12;;;;;;;30.67;11.27;;;;;;;;;;5005348;28;20132;-69
2022/12/06 08:17:41;;;;;;;28.70;11.13;;;;;;;;;;5008335;28;20052;-67
2022/12/06 08:20:08;;;;;;;32.30;12.07;;;;;;;;;;5004906;28;20030;-69
2022/12/06 08:22:34;;;;;;;28.52;11.13;;;;;;;;;;5005077;28;20060;-69
2022/12/06 08:25:00;;;;;;;27.95;11.57;;;;;;;;;;5007904;28;20105;-69
2022/12/06 08:27:27;;;;;;;30.55;11.45;;;;;;;;;;5001484;28;20034;-69
2022/12/06 08:29:53;;;;;;;27.13;12.50;;;;;;;;;;5008252;28;20034;-68
2022/12/06 08:32:19;;;;;;;36.38;12.27;;;;;;;;;;5005399;28;20034;-69
2022/12/06 08:34:45;;;;;;;33.05;12.90;;;;;;;;;;5006823;28;20044;-69
2022/12/06 08:37:11;;;;;;;38.97;13.60;;;;;;;;;;5002418;28;20037;-67
2022/12/06 08:39:38;;;;;;;26.17;13.18;;;;;;;;;;5007440;28;20037;-69
2022/12/06 08:42:06;;;;;;;30.45;13.32;;;;;;;;;;5007788;28;20158;-68
2022/12/06 08:44:32;;;;;;;33.60;13.27;;;;;;;;;;4993141;28;20521;-69
2022/12/06 08:47:00;;;;;;;33.15;12.95;;;;;;;;;;5006202;28;20044;-68
2022/12/06 08:49:26;;;;;;;43.08;12.93;;;;;;;;;;5015911;28;20042;-68
2022/12/06 08:51:53;;;;;;;33.25;13.30;;;;;;;;;;5011229;28;20036;-69
2022/12/06 08:54:20;;;;;;;36.28;14.10;;;;;;;;;;5008012;28;20033;-70
2022/12/06 08:56:47;;;;;;;37.47;13.75;;;;;;;;;;5004379;28;20069;-69
2022/12/06 08:59:13;;;;;;;30.67;13.32;;;;;;;;;;4990578;28;20030;-68
2022/12/06 09:01:39;;;;;;;29.67;13.45;;;;;;;;;;5007943;28;20112;-69
2022/12/06 09:04:06;;;;;;;32.40;13.68;;;;;;;;;;4992910;28;20464;-68
2022/12/06 09:06:33;;;;;;;29.50;13.50;;;;;;;;;;5008739;28;20022;-68
2022/12/06 09:08:59;;;;;;;33.60;13.45;;;;;;;;;;5005368;28;20141;-69
2022/12/06 09:11:26;;;;;;;27.67;13.07;;;;;;;;;;5009420;28;20030;-69
2022/12/06 09:13:52;;;;;;;35.47;14.68;;;;;;;;;;5006838;28;20034;-69
2022/12/06 09:16:19;;;;;;;37.15;14.20;;;;;;;;;;5008126;28;20029;-69
2022/12/06 09:18:46;;;;;;;36.92;13.50;;;;;;;;;;5010229;28;20431;-68
2022/12/06 09:21:14;;;;;;;37.05;13.68;;;;;;;;;;5005501;28;20058;-69
2022/12/06 09:23:40;;;;;;;33.05;13.48;;;;;;;;;;5008359;28;20092;-69
2022/12/06 09:26:06;;;;;;;35.20;14.43;;;;;;;;;;5008344;28;20026;-69
2022/12/06 09:28:34;;;;;;;31.63;13.60;;;;;;;;;;4973443;28;20026;-69
2022/12/06 09:31:01;;;;;;;36.20;15.00;;;;;;;;;;5006767;28;20029;-69
2022/12/06 09:33:27;;;;;;;40.15;14.93;;;;;;;;;;4989296;28;20050;-68
2022/12/06 09:35:53;;;;;;;73.80;15.13;;;;;;;;;;5002723;28;20050;-68
2022/12/06 09:38:21;;;;;;;29.80;13.77;;;;;;;;;;4989332;28;20121;-69
2022/12/06 09:41:03;;;;;;;32.22;14.10;;;;;;;;;;5000800;28;20036;-68
2022/12/06 09:43:29;;;;;;;32.45;15.10;;;;;;;;;;5003173;28;20501;-69
2022/12/06 09:45:55;;;;;;;35.72;14.02;;;;;;;;;;5008114;28;20026;-69
2022/12/06 09:48:21;;;;;;;30.17;13.60;;;;;;;;;;5006564;28;20026;-69
2022/12/06 09:50:47;;;;;;;31.30;13.70;;;;;;;;;;5007421;28;20041;-69
2022/12/06 09:53:22;;;;;;;30.17;13.75;;;;;;;;;;5008670;28;20117;-68
2022/12/06 09:55:54;;;;;;;24.50;12.18;;;;;;;;;;4991352;28;20049;-68
2022/12/06 09:58:33;;;;;;;24.13;11.18;;;;;;;;;;5009819;28;20084;-68
2022/12/06 10:01:03;;;;;;;22.13;10.73;;;;;;;;;;5007137;28;20065;-69
2022/12/06 10:03:32;;;;;;;21.75;11.13;;;;;;;;;;5008353;28;20029;-68
2022/12/06 10:06:04;;;;;;;18.92;10.73;;;;;;;;;;4998004;28;20034;-69
2022/12/06 10:08:33;;;;;;;26.60;12.05;;;;;;;;;;5009664;28;20029;-68
2022/12/06 10:11:02;;;;;;;25.42;10.90;;;;;;;;;;5009453;28;20030;-68
2022/12/06 10:13:47;;;;;;;32.20;10.57;;;;;;;;;;4995288;28;20034;-69
2022/12/06 10:16:26;;;;;;;19.50;10.30;;;;;;;;;;5009271;28;20037;-68
2022/12/06 10:18:52;;;;;;;16.92;10.10;;;;;;;;;;4993708;28;20038;-69
2022/12/06 10:21:25;;;;;;;22.45;9.60;;;;;;;;;;4992716;28;20026;-69
2022/12/06 10:24:01;;;;;;;19.42;10.07;;;;;;;;;;4993885;28;20035;-69
2022/12/06 10:26:46;;;;;;;26.70;10.20;;;;;;;;;;4994765;28;20034;-68
2022/12/06 10:29:21;;;;;;;18.02;9.88;;;;;;;;;;5011809;28;20521;-68
2022/12/06 10:31:50;;;;;;;17.05;9.52;;;;;;;;;;5011944;28;20034;-69
2022/12/06 10:34:25;;;;;;;14.35;9.23;;;;;;;;;;5013865;28;20096;-69
2022/12/06 10:37:02;;;;;;;15.98;8.82;;;;;;;;;;4991300;28;20326;-68
2022/12/06 10:39:43;;;;;;;19.88;8.63;;;;;;;;;;5011234;28;20441;-69
2022/12/06 10:42:15;;;;;;;17.17;8.63;;;;;;;;;;5006818;28;20129;-69
2022/12/06 10:44:47;;;;;;;16.45;7.70;;;;;;;;;;4991257;28;20475;-68
2022/12/06 10:47:16;;;;;;;14.07;7.70;;;;;;;;;;5009355;28;20049;-69
2022/12/06 10:49:53;;;;;;;18.70;8.10;;;;;;;;;;5011238;28;20034;-69
2022/12/06 10:52:22;;;;;;;15.77;8.23;;;;;;;;;;5009277;28;20029;-69
2022/12/06 10:55:07;;;;;;;11.40;6.40;;;;;;;;;;5009705;28;20081;-69
2022/12/06 10:57:42;;;;;;;14.85;7.07;;;;;;;;;;5000529;28;20030;-69
2022/12/06 11:00:14;;;;;;;14.88;6.97;;;;;;;;;;5010609;28;20446;-69
2022/12/06 11:02:59;;;;;;;15.40;6.68;;;;;;;;;;5011381;28;20037;-68
2022/12/06 11:05:28;;;;;;;11.85;6.18;;;;;;;;;;5012986;28;20480;-69
2022/12/06 11:07:56;;;;;;;10.27;5.43;;;;;;;;;;5012735;28;20577;-69
2022/12/06 11:10:24;;;;;;;11.73;6.00;;;;;;;;;;5009669;28;20089;-69
2022/12/06 11:12:56;;;;;;;13.07;6.25;;;;;;;;;;5012684;28;20049;-68
2022/12/06 11:15:24;;;;;;;10.43;6.25;;;;;;;;;;5012750;28;20109;-68
2022/12/06 11:18:09;;;;;;;11.40;5.85;;;;;;;;;;5012665;28;20045;-69
2022/12/06 11:20:46;;;;;;;14.65;6.00;;;;;;;;;;5012535;28;20479;-68
2022/12/06 11:23:12;;;;;;;13.35;5.88;;;;;;;;;;5011769;28;20574;-68
2022/12/06 11:25:45;;;;;;;9.88;6.15;;;;;;;;;;5013589;28;20100;-69
2022/12/06 11:28:21;;;;;;;10.52;5.28;;;;;;;;;;5031988;28;20025;-68
2022/12/06 11:30:49;;;;;;;8.27;5.30;;;;;;;;;;5006898;28;20034;-69
2022/12/06 11:33:15;;;;;;;8.57;4.90;;;;;;;;;;5011468;28;20034;-69
2022/12/06 11:35:42;;;;;;;11.25;4.95;;;;;;;;;;5011989;28;20092;-69
2022/12/06 11:38:09;;;;;;;12.80;5.13;;;;;;;;;;5012165;28;20100;-68
2022/12/06 11:40:37;;;;;;;8.02;4.85;;;;;;;;;;4993900;28;20045;-69
2022/12/06 11:43:05;;;;;;;8.88;4.07;;;;;;;;;;5008111;28;20025;-69
2022/12/06 11:45:32;;;;;;;10.48;5.55;;;;;;;;;;5006592;28;20037;-69
2022/12/06 11:48:00;;;;;;;9.55;4.82;;;;;;;;;;5007399;28;20034;-69
2022/12/06 11:50:30;;;;;;;9.02;4.18;;;;;;;;;;5008255;28;20026;-68
2022/12/06 11:53:02;;;;;;;8.25;4.60;;;;;;;;;;4999716;28;20037;-68
2022/12/06 11:55:32;;;;;;;7.68;3.20;;;;;;;;;;4996014;28;20073;-68
2022/12/06 11:57:58;;;;;;;7.88;3.20;;;;;;;;;;5005443;28;20083;-68
2022/12/06 12:00:25;;;;;;;5.38;3.17;;;;;;;;;;4999319;28;20072;-68
2022/12/06 12:02:52;;;;;;;5.95;3.08;;;;;;;;;;5004800;28;20120;-68
2022/12/06 12:05:22;;;;;;;5.57;3.47;;;;;;;;;;5007203;28;20030;-68
2022/12/06 12:07:51;;;;;;;8.07;3.55;;;;;;;;;;5006753;28;20026;-68
2022/12/06 12:10:37;;;;;;;8.93;3.10;;;;;;;;;;5003482;28;20034;-68
2022/12/06 12:16:02;;;;;;;4.30;2.78;;;;;;;;;;5005192;28;20052;-68
2022/12/06 12:18:29;;;;;;;5.72;3.03;;;;;;;;;;5000088;28;20102;-68
2022/12/06 12:20:56;;;;;;;10.57;3.10;;;;;;;;;;5006218;28;20513;-68
2022/12/06 12:23:29;;;;;;;8.40;3.30;;;;;;;;;;5005757;28;20489;-68
2022/12/06 12:26:11;;;;;;;8.43;3.67;;;;;;;;;;5023301;28;20036;-68
2022/12/06 12:28:37;;;;;;;7.72;3.20;;;;;;;;;;5008888;28;20025;-68
2022/12/06 12:31:24;;;;;;;7.55;3.45;;;;;;;;;;5006343;28;20018;-68
2022/12/06 12:34:28;;;;;;;12.40;4.85;;;;;;;;;;4996853;28;20038;-68
2022/12/06 12:36:56;;;;;;;10.52;3.60;;;;;;;;;;4945752;29;20043;-69
2022/12/06 12:39:25;;;;;;;9.85;3.72;;;;;;;;;;4931887;29;20194;-68
2022/12/06 12:41:51;;;;;;;7.97;3.90;;;;;;;;;;4975187;28;20042;-69
2022/12/06 12:44:17;;;;;;;10.93;3.63;;;;;;;;;;5004308;28;20045;-68
2022/12/06 12:46:44;;;;;;;8.30;4.22;;;;;;;;;;5006236;28;20033;-68
2022/12/06 12:49:22;;;;;;;8.88;3.95;;;;;;;;;;5007891;28;20037;-68
2022/12/06 12:51:49;;;;;;;8.90;3.50;;;;;;;;;;5008758;28;20502;-68
2022/12/06 12:54:24;;;;;;;9.55;3.53;;;;;;;;;;5011398;28;20041;-68
2022/12/06 12:56:51;;;;;;;7.03;3.60;;;;;;;;;;5008693;28;20502;-68
2022/12/06 12:59:19;;;;;;;8.55;3.72;;;;;;;;;;5000345;28;20034;-68
2022/12/06 13:01:51;;;;;;;9.13;3.65;;;;;;;;;;5006222;28;20437;-68
2022/12/06 13:04:31;;;;;;;10.43;3.10;;;;;;;;;;5007014;28;20022;-69
2022/12/06 13:07:09;;;;;;;6.95;2.90;;;;;;;;;;5006419;28;20031;-69
2022/12/06 13:09:46;;;;;;;5.78;3.50;;;;;;;;;;5008633;28;20501;-69
2022/12/06 13:12:16;;;;;;;7.63;2.85;;;;;;;;;;5010085;28;20044;-68
2022/12/06 13:14:48;;;;;;;8.05;2.80;;;;;;;;;;5010124;28;20044;-68
2022/12/06 13:17:14;;;;;;;10.80;2.97;;;;;;;;;;5008642;28;20022;-68
2022/12/06 13:19:44;;;;;;;8.85;2.78;;;;;;;;;;5004158;28;20040;-69
2022/12/06 13:22:16;;;;;;;6.32;2.95;;;;;;;;;;5002344;28;20109;-69
2022/12/06 13:24:43;;;;;;;8.38;2.90;;;;;;;;;;5005399;28;20048;-69
2022/12/06 13:27:14;;;;;;;8.05;3.03;;;;;;;;;;5007482;28;20033;-69
2022/12/06 13:29:41;;;;;;;6.07;2.58;;;;;;;;;;5005988;28;20026;-68
2022/12/06 13:32:13;;;;;;;7.88;3.00;;;;;;;;;;5002379;28;20044;-69
2022/12/06 13:34:41;;;;;;;5.28;2.90;;;;;;;;;;5002097;28;20044;-69
2022/12/06 13:37:26;;;;;;;5.47;2.70;;;;;;;;;;5001231;28;20258;-68
2022/12/06 13:39:52;;;;;;;9.15;3.50;;;;;;;;;;5001483;28;20397;-69
2022/12/06 13:42:40;;;;;;;6.93;2.70;;;;;;;;;;5002455;28;20112;-68
2022/12/06 13:45:26;;;;;;;9.38;3.08;;;;;;;;;;5007646;28;20092;-68
2022/12/06 13:47:52;;;;;;;8.68;3.42;;;;;;;;;;5008248;28;20109;-68
2022/12/06 13:50:18;;;;;;;8.77;3.35;;;;;;;;;;5003637;28;20107;-69
2022/12/06 13:52:47;;;;;;;7.88;3.17;;;;;;;;;;5003876;28;20033;-69
2022/12/06 13:55:27;;;;;;;9.90;3.42;;;;;;;;;;5004454;28;20418;-69
2022/12/06 13:57:59;;;;;;;9.60;3.20;;;;;;;;;;5004514;28;20029;-69
2022/12/06 14:00:28;;;;;;;7.43;3.17;;;;;;;;;;5003886;28;20029;-69
2022/12/06 14:02:58;;;;;;;10.90;3.45;;;;;;;;;;5005660;28;20088;-67
2022/12/06 14:05:42;;;;;;;7.80;3.30;;;;;;;;;;5006561;28;20471;-68
2022/12/06 14:08:11;;;;;;;10.07;5.03;;;;;;;;;;5007299;28;20108;-68
2022/12/06 14:10:37;;;;;;;13.32;2.50;;;;;;;;;;5006749;28;20097;-68
2022/12/06 14:13:05;;;;;;;6.18;2.67;;;;;;;;;;5005462;28;20037;-68
2022/12/06 14:15:31;;;;;;;10.15;3.13;;;;;;;;;;5006974;28;20041;-69
2022/12/06 14:17:57;;;;;;;11.52;3.20;;;;;;;;;;4999578;28;20030;-69
2022/12/06 14:20:24;;;;;;;14.00;4.45;;;;;;;;;;5004985;28;20436;-69
2022/12/06 14:22:51;;;;;;;7.85;3.55;;;;;;;;;;5006595;28;20026;-68
2022/12/06 14:25:20;;;;;;;9.93;4.07;;;;;;;;;;5003632;28;20475;-69
2022/12/06 14:27:48;;;;;;;9.15;4.10;;;;;;;;;;5013540;28;20553;-70
2022/12/06 14:30:14;;;;;;;11.38;4.60;;;;;;;;;;5006171;28;20217;-69
2022/12/06 14:32:42;;;;;;;10.27;4.80;;;;;;;;;;5006039;28;20395;-70
2022/12/06 14:35:11;;;;;;;8.60;4.15;;;;;;;;;;5006157;28;20029;-70
2022/12/06 14:37:38;;;;;;;9.75;3.67;;;;;;;;;;5004009;28;20044;-70
2022/12/06 14:43:00;;;;;;;11.30;4.68;;;;;;;;;;5001644;28;20079;-69
2022/12/06 14:43:20;;;;;;;12.32;5.97;;;;;;;;;;4988260;28;20616;-70
2022/12/06 14:45:46;;;;;;;12.20;4.90;;;;;;;;;;5002646;28;20506;-70
2022/12/06 14:48:13;;;;;;;12.02;4.93;;;;;;;;;;5002560;28;20041;-70
2022/12/06 14:50:44;;;;;;;11.65;4.90;;;;;;;;;;5003825;28;20045;-70
2022/12/06 14:53:14;;;;;;;13.43;5.57;;;;;;;;;;4997542;28;20108;-70
2022/12/06 14:55:54;;;;;;;8.15;5.25;;;;;;;;;;5001027;28;20050;-70
2022/12/06 14:58:22;;;;;;;15.65;5.97;;;;;;;;;;5001456;28;20046;-70
2022/12/06 15:00:53;;;;;;;14.45;5.20;;;;;;;;;;5006190;28;20018;-69